Time;durP1;ratioP1;P1;durP2;ratioP2;P2;SDS_P1;SDS_P2;PMS_P1;PMS_P2;Temp;Humidity;BMP_temperature;BMP_pressure;BME280_temperature;BME280_humidity;BME280_pressure;Samples;Min_cycle;Max_cycle;Signal;HPM_P1;HPM_P2
2023/08/28 00:04:29;;;;;;;4.50;1.60;;;;;;;17.23;71.03;98782.22;7283238;39;20863;31
2023/08/28 00:10:04;;;;;;;4.03;1.60;;;;;;;17.00;71.71;98771.03;7296973;39;20264;31
2023/08/28 00:15:39;;;;;;;3.90;1.50;;;;;;;16.86;72.53;98773.00;7266321;40;20779;31
2023/08/28 00:21:13;;;;;;;2.83;1.50;;;;;;;16.95;71.59;98768.97;7245920;40;20259;31
2023/08/28 00:26:49;;;;;;;4.90;2.30;;;;;;;16.87;72.10;98741.16;7218637;40;20261;31
2023/08/28 00:32:26;;;;;;;4.60;1.70;;;;;;;16.92;72.46;98742.19;7237534;40;20248;31
2023/08/28 00:37:47;;;;;;;1.80;1.50;;;;;;;16.90;72.12;98746.16;7247147;40;20315;31
2023/08/28 00:43:23;;;;;;;2.47;1.57;;;;;;;16.73;72.67;98754.00;7287510;39;20331;31
2023/08/28 00:48:57;;;;;;;3.57;1.57;;;;;;;16.81;72.04;98752.91;7267958;39;20333;31
2023/08/28 00:54:32;;;;;;;3.00;1.50;;;;;;;16.86;72.04;98747.66;7271816;39;20358;31
2023/08/28 01:05:12;;;;;;;4.17;1.70;;;;;;;16.59;73.17;98753.22;7326045;39;21647;31
2023/08/28 01:10:47;;;;;;;3.30;1.50;;;;;;;16.64;72.20;98774.34;7282616;39;20280;31
2023/08/28 01:21:28;;;;;;;2.90;1.50;;;;;;;16.49;72.26;98750.13;7316125;39;20800;31
2023/08/28 01:32:08;;;;;;;2.25;1.50;;;;;;;16.60;72.81;98770.38;7341776;39;20438;31
2023/08/28 01:37:43;;;;;;;2.00;1.40;;;;;;;16.55;71.52;98760.13;7323177;39;20369;31
2023/08/28 01:43:18;;;;;;;4.50;1.50;;;;;;;16.53;72.15;98772.28;7284421;39;20268;31
2023/08/28 01:48:57;;;;;;;1.73;1.23;;;;;;;16.47;72.13;98773.13;7340691;39;20270;31
2023/08/28 01:54:32;;;;;;;2.20;1.40;;;;;;;16.49;72.04;98768.31;7265379;40;20266;31
2023/08/28 02:05:47;;;;;;;2.30;1.40;;;;;;;16.44;71.71;98749.91;7230769;40;20276;31
2023/08/28 02:11:22;;;;;;;1.40;1.30;;;;;;;16.47;72.46;98757.63;7264964;40;20314;31
2023/08/28 02:16:58;;;;;;;2.70;1.50;;;;;;;16.44;71.50;98760.81;7279516;40;20325;31
2023/08/28 02:22:35;;;;;;;3.00;1.50;;;;;;;16.37;72.65;98756.41;7196417;40;20246;31
2023/08/28 02:28:11;;;;;;;2.70;1.30;;;;;;;16.39;71.92;98744.28;7230200;40;20251;31
2023/08/28 02:33:31;;;;;;;2.40;1.30;;;;;;;16.28;72.24;98736.78;7282075;39;20251;31
2023/08/28 02:39:05;;;;;;;2.10;1.50;;;;;;;16.27;71.70;98723.41;7264575;40;20685;31
2023/08/28 02:44:25;;;;;;;1.95;1.35;;;;;;;16.30;71.49;98706.66;7314712;39;20352;31
2023/08/28 02:50:01;;;;;;;2.70;1.40;;;;;;;16.28;70.84;98692.44;7337311;39;20852;31
2023/08/28 02:55:38;;;;;;;1.63;1.30;;;;;;;16.17;71.08;98715.69;7273098;40;20487;31
2023/08/28 03:00:58;;;;;;;2.63;1.50;;;;;;;16.08;71.54;98704.22;7295808;39;20786;31
2023/08/28 03:06:34;;;;;;;3.40;1.50;;;;;;;15.97;72.53;98714.94;7247715;40;20237;31
2023/08/28 03:12:10;;;;;;;2.50;1.20;;;;;;;15.98;72.40;98711.97;7249707;40;20872;31
2023/08/28 03:17:45;;;;;;;2.10;1.40;;;;;;;15.84;73.61;98704.91;7263161;39;20278;31
2023/08/28 03:23:05;;;;;;;2.70;1.30;;;;;;;15.85;72.32;98705.72;7237013;40;20324;31
2023/08/28 03:28:40;;;;;;;2.43;1.20;;;;;;;15.77;73.10;98676.91;7239899;40;20257;31
2023/08/28 03:34:00;;;;;;;3.30;1.50;;;;;;;15.77;73.20;98679.62;7219761;40;20259;31
2023/08/28 03:39:33;;;;;;;5.40;1.60;;;;;;;15.73;73.84;98671.06;7273307;40;20251;31
2023/08/28 03:45:07;;;;;;;3.30;1.30;;;;;;;15.62;73.89;98662.75;7254212;40;20248;31
2023/08/28 03:50:29;;;;;;;2.60;1.30;;;;;;;15.52;73.81;98660.47;7265922;40;20374;31
2023/08/28 03:55:48;;;;;;;1.60;1.30;;;;;;;15.62;74.37;98665.47;7341484;39;20259;31
2023/08/28 04:01:24;;;;;;;3.80;1.60;;;;;;;15.67;73.36;98658.31;7333442;39;20258;31
2023/08/28 04:07:01;;;;;;;3.67;1.57;;;;;;;15.64;73.91;98660.63;7324392;39;20244;31
2023/08/28 04:12:19;;;;;;;2.43;1.30;;;;;;;15.72;73.93;98677.53;7343368;39;20280;31
2023/08/28 04:17:40;;;;;;;5.00;1.30;;;;;;;15.74;73.39;98680.06;7319372;39;20259;31
2023/08/28 04:23:17;;;;;;;2.00;1.33;;;;;;;15.69;73.64;98677.16;7291355;39;20260;31
2023/08/28 04:28:36;;;;;;;2.77;1.30;;;;;;;15.84;74.32;98690.50;7284355;39;20261;31
2023/08/28 04:34:11;;;;;;;2.10;1.50;;;;;;;15.88;74.20;98689.87;7360148;39;20255;31
2023/08/28 04:39:47;;;;;;;1.50;1.40;;;;;;;15.70;73.62;98681.53;7319068;39;20259;31
2023/08/28 04:45:08;;;;;;;3.20;1.40;;;;;;;15.58;74.15;98672.34;7270568;39;20237;31
2023/08/28 04:50:28;;;;;;;3.30;1.50;;;;;;;15.64;73.70;98674.22;7299991;39;20254;31
2023/08/28 04:56:05;;;;;;;3.00;1.30;;;;;;;15.68;73.22;98665.44;7281979;39;20236;31
2023/08/28 05:01:25;;;;;;;1.70;1.30;;;;;;;15.71;73.76;98664.16;7275054;39;20253;31
2023/08/28 05:07:02;;;;;;;3.73;1.43;;;;;;;15.84;73.61;98675.00;7268480;40;20368;31
2023/08/28 05:12:37;;;;;;;2.10;1.60;;;;;;;15.99;74.14;98678.31;7199027;40;20243;31
2023/08/28 05:17:58;;;;;;;4.87;1.60;;;;;;;16.09;73.15;98677.88;7201165;40;20238;31
2023/08/28 05:23:24;;;;;;;2.20;1.40;;;;;;;16.00;73.57;98681.87;7246592;40;20252;31
2023/08/28 05:28:54;;;;;;;4.25;1.55;;;;;;;15.94;73.30;98677.28;7229344;39;20722;31
2023/08/28 05:34:22;;;;;;;3.53;1.40;;;;;;;15.76;74.93;98677.94;7074600;40;21292;31
2023/08/28 05:39:57;;;;;;;3.15;1.40;;;;;;;15.69;74.94;98680.69;7289879;39;20324;31
2023/08/28 05:45:34;;;;;;;2.40;1.50;;;;;;;15.69;75.74;98682.56;7242223;40;20882;31
2023/08/28 05:50:54;;;;;;;3.45;1.50;;;;;;;15.59;74.96;98687.59;7264980;39;20362;31
2023/08/28 05:56:28;;;;;;;2.10;1.50;;;;;;;15.58;75.99;98694.06;7325577;39;20783;31
2023/08/28 06:02:01;;;;;;;3.00;1.70;;;;;;;15.55;75.37;98694.50;7296057;39;20782;31
2023/08/28 06:07:22;;;;;;;4.80;1.70;;;;;;;15.63;76.26;98702.44;7281597;40;20784;31
2023/08/28 06:12:43;;;;;;;3.50;1.60;;;;;;;15.63;75.64;98697.84;7278668;40;20241;31
2023/08/28 06:18:20;;;;;;;2.10;1.50;;;;;;;15.61;76.00;98704.53;7249893;40;20312;31
2023/08/28 06:23:41;;;;;;;3.13;1.80;;;;;;;15.69;76.10;98709.75;7283568;39;20389;31
2023/08/28 06:34:25;;;;;;;2.70;1.70;;;;;;;15.85;75.79;98692.16;7281257;39;21194;31
2023/08/28 06:39:46;;;;;;;1.80;1.40;;;;;;;15.87;76.29;98696.34;7312261;39;20241;31
2023/08/28 06:45:23;;;;;;;1.90;1.50;;;;;;;15.98;75.75;98670.38;7367223;39;20250;31
2023/08/28 06:50:57;;;;;;;2.43;1.50;;;;;;;15.99;76.14;98664.72;7320988;39;20338;31
2023/08/28 06:56:34;;;;;;;2.23;1.30;;;;;;;15.98;76.54;98644.03;7255494;40;20241;31
2023/08/28 07:01:55;;;;;;;3.40;1.40;;;;;;;16.09;75.33;98639.81;7299348;39;20258;31
2023/08/28 07:07:31;;;;;;;2.87;1.30;;;;;;;16.20;76.06;98658.16;7278659;40;20237;31
2023/08/28 07:12:52;;;;;;;2.07;1.40;;;;;;;16.23;75.10;98655.81;7235589;40;20262;31
2023/08/28 07:18:12;;;;;;;3.17;1.37;;;;;;;16.26;74.90;98649.12;7248506;40;20252;31
2023/08/28 07:23:51;;;;;;;4.60;1.70;;;;;;;16.22;76.18;98624.28;7300576;39;20241;31
2023/08/28 07:29:17;;;;;;;4.00;1.60;;;;;;;16.30;75.58;98616.91;7311021;39;20252;31
2023/08/28 07:45:37;;;;;;;1.93;1.50;;;;;;;16.61;75.11;98652.34;7276951;40;21134;31
2023/08/28 07:50:57;;;;;;;3.55;1.50;;;;;;;16.76;74.85;98652.03;7286218;39;20578;31
2023/08/28 07:56:34;;;;;;;1.62;1.40;;;;;;;16.77;74.31;98643.63;7280383;40;20270;31
2023/08/28 08:02:07;;;;;;;2.03;1.30;;;;;;;16.94;74.63;98644.75;7259429;40;20246;31
2023/08/28 08:07:42;;;;;;;4.73;1.40;;;;;;;17.08;74.07;98640.06;7235537;40;20561;31
2023/08/28 08:13:21;;;;;;;3.12;1.20;;;;;;;17.10;73.65;98638.78;7249385;40;20483;31
2023/08/28 08:18:46;;;;;;;5.58;1.54;;;;;;;17.26;73.26;98648.28;7283496;39;20328;31
2023/08/28 08:24:11;;;;;;;3.75;1.35;;;;;;;17.32;73.31;98643.84;7270395;40;20712;31
2023/08/28 08:29:49;;;;;;;2.20;1.40;;;;;;;17.39;72.95;98642.72;7276199;39;20247;31
2023/08/28 08:35:25;;;;;;;4.93;1.30;;;;;;;17.42;72.92;98638.72;7241735;40;20789;31
2023/08/28 08:41:00;;;;;;;1.40;1.20;;;;;;;17.47;73.04;98644.31;7218724;40;20259;31
2023/08/28 08:46:37;;;;;;;2.47;1.60;;;;;;;17.47;72.70;98650.59;7194360;40;20795;31
2023/08/28 08:52:12;;;;;;;4.70;1.40;;;;;;;17.52;72.62;98680.75;7205895;40;20242;31
2023/08/28 09:08:54;;;;;;;3.10;1.57;;;;;;;17.69;72.72;98670.13;7265987;38;13018705;31
2023/08/28 09:14:31;;;;;;;3.10;1.40;;;;;;;17.73;73.03;98692.31;7445725;39;20249;31
2023/08/28 09:25:13;;;;;;;2.13;1.60;;;;;;;17.74;72.47;98707.63;7381322;39;20259;31
2023/08/28 09:30:48;;;;;;;2.43;1.70;;;;;;;17.80;72.30;98701.28;7362240;39;20253;31
2023/08/28 09:36:25;;;;;;;2.70;1.80;;;;;;;17.77;72.23;98704.47;7374100;39;20399;31
2023/08/28 09:42:03;;;;;;;2.42;1.58;;;;;;;17.83;72.22;98698.94;7350280;39;20323;31
2023/08/28 09:47:40;;;;;;;4.20;1.60;;;;;;;17.85;71.80;98715.06;7315229;39;20745;31
2023/08/28 09:53:31;;;;;;;2.30;1.55;;;;;;;17.88;72.01;98707.28;7306567;39;20258;31
2023/08/28 09:59:07;;;;;;;3.40;1.75;;;;;;;17.87;71.32;98710.22;7280764;40;20252;31
2023/08/28 10:04:43;;;;;;;3.10;1.80;;;;;;;17.91;71.78;98716.88;7263501;40;20386;31
2023/08/28 10:10:19;;;;;;;4.87;1.70;;;;;;;18.01;71.34;98703.56;7244684;40;20309;31
2023/08/28 10:15:58;;;;;;;3.05;1.95;;;;;;;18.15;71.09;98696.06;7199012;40;20249;31
2023/08/28 10:21:33;;;;;;;4.30;2.10;;;;;;;18.15;70.78;98688.72;7219607;40;20930;31
2023/08/28 10:27:08;;;;;;;4.30;2.10;;;;;;;18.22;69.56;98681.28;7208247;40;20322;31
2023/08/28 10:32:44;;;;;;;6.70;2.00;;;;;;;18.21;69.78;98670.62;7224925;40;20339;31
2023/08/28 10:38:25;;;;;;;2.90;1.90;;;;;;;18.37;69.94;98653.63;7293009;39;20286;31
2023/08/28 10:44:00;;;;;;;2.60;2.07;;;;;;;18.43;68.82;98649.94;7279842;39;20256;31
2023/08/28 10:49:39;;;;;;;4.17;2.20;;;;;;;18.53;68.32;98663.09;7214385;40;20984;31
2023/08/28 10:55:20;;;;;;;3.60;2.17;;;;;;;18.58;67.19;98653.16;7211472;40;20245;31
2023/08/28 11:00:42;;;;;;;3.13;2.03;;;;;;;18.70;68.35;98651.28;7195968;40;20328;31
2023/08/28 11:11:29;;;;;;;3.53;2.50;;;;;;;18.81;66.37;98631.41;7266340;39;20271;31
2023/08/28 11:17:04;;;;;;;4.90;2.60;;;;;;;18.91;67.34;98634.38;7296173;39;20286;31
2023/08/28 11:22:43;;;;;;;3.53;1.90;;;;;;;18.87;65.93;98638.63;7325964;39;21184;31
2023/08/28 11:28:20;;;;;;;2.90;1.90;;;;;;;19.02;66.02;98634.63;7317537;39;20244;31
2023/08/28 11:33:55;;;;;;;3.17;2.10;;;;;;;19.24;64.62;98624.81;7308905;39;20268;31
2023/08/28 11:39:37;;;;;;;2.10;1.80;;;;;;;19.38;65.15;98631.72;7278744;39;20716;31
2023/08/28 11:45:17;;;;;;;2.23;2.00;;;;;;;19.49;64.54;98616.41;7339448;39;20722;31
2023/08/28 11:50:37;;;;;;;3.67;2.27;;;;;;;19.53;64.46;98617.59;7286077;40;20579;31
2023/08/28 12:01:22;;;;;;;2.80;2.30;;;;;;;19.52;63.53;98611.31;7292855;39;21184;31
2023/08/28 12:12:04;;;;;;;2.37;2.00;;;;;;;19.54;61.87;98611.88;7356125;39;20324;31
2023/08/28 12:17:40;;;;;;;4.07;1.87;;;;;;;19.55;61.99;98599.91;7317027;39;20348;31
2023/08/28 12:23:25;;;;;;;;;;;;;;;;;;;;;
2023/08/28 12:28:58;;;;;;;1.75;1.50;;;;;;;19.68;62.10;98609.75;7359852;39;20377;31
2023/08/28 12:34:25;;;;;;;4.63;1.80;;;;;;;19.84;61.58;98605.44;7316916;39;20463;31
2023/08/28 12:40:00;;;;;;;2.58;1.96;;;;;;;19.80;63.10;98602.34;7351594;39;20239;31
2023/08/28 12:50:44;;;;;;;2.43;1.70;;;;;;;19.75;62.32;98603.06;7275362;40;21467;31
2023/08/28 13:01:23;;;;;;;2.27;1.63;;;;;;;19.84;62.33;98611.72;7376758;39;21900;31
2023/08/28 13:07:01;;;;;;;2.70;2.00;;;;;;;19.64;62.07;98611.28;7381586;39;20240;31
2023/08/28 13:12:20;;;;;;;2.83;1.87;;;;;;;19.63;62.40;98617.84;7344971;39;20244;31
2023/08/28 13:17:40;;;;;;;3.47;2.03;;;;;;;19.64;62.20;98624.97;7298004;39;20325;31
2023/08/28 13:23:17;;;;;;;3.53;1.77;;;;;;;19.57;62.42;98630.53;7301304;39;20248;31
2023/08/28 13:28:37;;;;;;;2.22;1.65;;;;;;;19.57;62.02;98636.00;7300537;39;20271;31
2023/08/28 13:34:10;;;;;;;1.53;1.43;;;;;;;19.52;61.73;98635.91;7387339;39;20246;31
2023/08/28 13:39:46;;;;;;;2.50;1.70;;;;;;;19.56;61.17;98633.53;7362967;39;20315;31
2023/08/28 13:45:22;;;;;;;2.10;1.40;;;;;;;19.60;62.63;98640.19;7387433;39;20302;31
2023/08/28 13:50:57;;;;;;;1.85;1.45;;;;;;;19.54;60.32;98633.75;7362669;39;20330;31
2023/08/28 13:56:33;;;;;;;2.53;1.70;;;;;;;19.63;61.67;98654.22;7305524;39;20265;31
2023/08/28 14:01:53;;;;;;;2.30;1.60;;;;;;;19.62;60.61;98658.00;7333123;39;20344;31
2023/08/28 14:07:28;;;;;;;1.75;1.30;;;;;;;19.49;60.43;98650.03;7321144;39;20244;31
2023/08/28 14:13:05;;;;;;;1.73;1.43;;;;;;;19.53;60.98;98640.28;7321609;39;20259;31
2023/08/28 14:18:26;;;;;;;1.90;1.40;;;;;;;19.67;59.82;98632.69;7274127;40;20275;31
2023/08/28 14:24:01;;;;;;;3.10;1.80;;;;;;;19.53;59.12;98634.81;7278571;40;20238;31
2023/08/28 14:29:34;;;;;;;3.25;1.30;;;;;;;19.65;59.50;98632.94;7277099;40;20813;31
2023/08/28 14:35:07;;;;;;;2.50;1.40;;;;;;;19.70;59.82;98624.03;7288699;39;20357;31
2023/08/28 14:40:45;;;;;;;1.70;1.40;;;;;;;19.67;60.30;98625.31;7299317;39;20519;31
2023/08/28 14:51:26;;;;;;;1.80;1.40;;;;;;;19.72;60.87;98619.97;7283207;39;21185;31
2023/08/28 14:56:46;;;;;;;2.77;1.30;;;;;;;19.72;60.32;98614.50;7314915;39;20793;31
2023/08/28 15:02:20;;;;;;;1.52;1.25;;;;;;;19.71;60.25;98607.34;7334759;39;20244;31
2023/08/28 15:07:57;;;;;;;2.00;1.30;;;;;;;19.64;61.25;98603.09;7264337;39;20237;31
2023/08/28 15:13:34;;;;;;;1.70;1.30;;;;;;;19.63;61.46;98613.19;7288775;39;20271;31
2023/08/28 15:19:08;;;;;;;3.25;1.40;;;;;;;19.68;60.88;98607.00;7306553;39;20334;31
2023/08/28 15:24:46;;;;;;;1.63;1.30;;;;;;;19.68;62.07;98602.38;7274438;39;20252;31
2023/08/28 15:30:22;;;;;;;3.03;1.40;;;;;;;19.74;60.95;98601.44;7299276;40;20349;31
2023/08/28 15:35:42;;;;;;;2.37;1.50;;;;;;;19.64;61.07;98603.09;7270743;40;20245;31
2023/08/28 15:41:05;;;;;;;3.05;1.50;;;;;;;19.61;61.94;98593.47;7338411;39;20240;31
2023/08/28 15:46:26;;;;;;;3.42;1.70;;;;;;;19.58;60.19;98604.88;7320141;39;20391;31
2023/08/28 15:51:44;;;;;;;2.20;1.27;;;;;;;19.59;61.35;98608.44;7155053;39;20406;31
2023/08/28 15:57:20;;;;;;;3.60;1.67;;;;;;;19.60;62.13;98615.59;7346795;39;20355;31
2023/08/28 16:02:56;;;;;;;1.97;1.20;;;;;;;19.63;62.71;98617.84;7319130;39;20443;31
2023/08/28 16:08:17;;;;;;;2.53;1.13;;;;;;;19.65;62.09;98627.47;7292946;39;20237;31
2023/08/28 16:13:54;;;;;;;2.30;1.40;;;;;;;19.55;61.62;98629.13;7270684;40;20260;31
2023/08/28 16:19:30;;;;;;;6.05;1.50;;;;;;;19.54;61.09;98620.09;7244335;40;20245;31
2023/08/28 16:25:05;;;;;;;3.08;1.15;;;;;;;19.57;62.41;98616.06;7257749;40;20346;31
2023/08/28 16:30:41;;;;;;;2.00;1.20;;;;;;;19.59;62.12;98624.84;7259745;40;20349;31
2023/08/28 16:36:02;;;;;;;2.80;1.40;;;;;;;19.60;62.24;98621.06;7286521;39;20245;31
2023/08/28 16:41:19;;;;;;;3.60;1.70;;;;;;;19.61;61.62;98623.56;7329068;39;20271;31
2023/08/28 16:46:56;;;;;;;4.00;1.40;;;;;;;19.53;62.15;98620.31;7339930;39;20247;31
2023/08/28 16:52:16;;;;;;;3.70;1.70;;;;;;;19.46;63.40;98625.94;7331478;39;20255;31
2023/08/28 16:57:37;;;;;;;2.03;1.45;;;;;;;19.36;63.04;98620.19;7339894;39;20261;31
2023/08/28 17:03:13;;;;;;;3.70;1.40;;;;;;;19.24;64.08;98611.16;7320578;39;20363;31
2023/08/28 17:08:49;;;;;;;4.03;1.43;;;;;;;19.17;63.81;98607.72;7294732;39;20699;31
2023/08/28 17:14:24;;;;;;;2.97;1.43;;;;;;;18.98;63.70;98592.47;7287743;39;20268;31
2023/08/28 17:25:06;;;;;;;1.67;1.43;;;;;;;18.79;63.96;98605.38;7266482;40;20329;31
2023/08/28 17:30:42;;;;;;;3.37;1.33;;;;;;;18.95;64.08;98612.91;7310983;39;20666;31
2023/08/28 17:36:04;;;;;;;2.40;1.70;;;;;;;19.06;64.61;98627.63;7297705;39;20240;31
2023/08/28 17:41:41;;;;;;;2.80;1.50;;;;;;;19.02;64.13;98623.72;7318426;39;20244;31
2023/08/28 17:47:16;;;;;;;1.65;1.45;;;;;;;19.02;65.07;98624.53;7259950;40;20792;31
2023/08/28 17:52:37;;;;;;;1.50;1.30;;;;;;;18.99;65.42;98630.47;7270936;39;20340;31
2023/08/28 17:58:13;;;;;;;2.70;1.35;;;;;;;18.92;65.77;98629.75;7302627;40;20379;31
2023/08/28 18:03:49;;;;;;;2.37;1.30;;;;;;;18.92;65.46;98646.97;7325610;39;20389;31
2023/08/28 18:09:21;;;;;;;1.90;1.60;;;;;;;18.84;65.79;98647.31;7342733;39;20255;31
2023/08/28 18:15:00;;;;;;;1.50;1.40;;;;;;;18.82;65.94;98652.16;7358657;39;20336;31
2023/08/28 18:20:19;;;;;;;1.33;1.20;;;;;;;18.83;66.56;98662.00;7318774;39;20367;31
2023/08/28 18:25:53;;;;;;;2.00;1.30;;;;;;;18.72;67.10;98662.81;7335377;39;20336;31
2023/08/28 18:31:29;;;;;;;2.03;1.43;;;;;;;18.67;67.43;98676.31;7281559;39;20267;31
2023/08/28 18:37:05;;;;;;;1.60;1.50;;;;;;;18.65;66.87;98686.62;7250952;40;20241;31
2023/08/28 18:42:25;;;;;;;1.80;1.50;;;;;;;18.48;67.46;98691.88;7236492;40;20277;31
2023/08/28 18:53:08;;;;;;;2.50;1.60;;;;;;;18.31;68.74;98687.25;7298869;39;20823;31
2023/08/28 18:58:42;;;;;;;4.15;2.00;;;;;;;18.13;69.93;98690.84;7352924;39;20267;31
2023/08/28 19:04:04;;;;;;;3.80;2.00;;;;;;;18.12;70.11;98696.53;7346856;39;20247;31
2023/08/28 19:09:40;;;;;;;4.20;1.76;;;;;;;18.03;70.46;98696.81;7339423;39;20271;31
2023/08/28 19:15:16;;;;;;;3.13;1.83;;;;;;;18.08;70.40;98700.78;7310336;39;20259;31
2023/08/28 19:20:51;;;;;;;2.10;1.60;;;;;;;18.09;69.27;98703.25;7300578;39;20333;31
2023/08/28 19:26:28;;;;;;;2.13;1.67;;;;;;;18.06;69.80;98695.53;7315421;39;20248;31
2023/08/28 19:31:49;;;;;;;2.20;1.60;;;;;;;18.08;69.49;98696.13;7306238;39;20286;31
2023/08/28 19:37:09;;;;;;;2.00;1.70;;;;;;;18.03;70.18;98691.34;7286629;39;20237;31
2023/08/28 19:42:45;;;;;;;3.10;1.90;;;;;;;17.94;70.44;98681.84;7315259;39;20341;31
2023/08/28 19:48:07;;;;;;;2.10;1.70;;;;;;;17.96;69.31;98687.03;7276334;39;20366;31
2023/08/28 19:53:27;;;;;;;1.90;1.60;;;;;;;17.80;70.36;98680.31;7301055;39;20326;31
2023/08/28 19:59:03;;;;;;;2.20;1.80;;;;;;;17.74;70.89;98674.91;7337902;39;20330;31
2023/08/28 20:04:24;;;;;;;2.90;1.90;;;;;;;17.78;69.89;98671.50;7317011;39;20355;31
2023/08/28 20:15:05;;;;;;;2.00;1.60;;;;;;;17.68;70.36;98665.75;7380301;39;20342;31
2023/08/28 20:25:50;;;;;;;1.83;1.57;;;;;;;17.61;70.50;98669.59;7288071;39;20271;31
2023/08/28 20:37:10;;;;;;;2.50;1.60;;;;;;;17.53;69.84;98663.34;7245104;40;20460;31
2023/08/28 20:42:46;;;;;;;3.33;1.80;;;;;;;17.44;69.94;98653.78;7199828;40;20243;31
2023/08/28 20:48:23;;;;;;;3.13;1.60;;;;;;;17.34;70.59;98655.34;7256224;39;20269;31
2023/08/28 20:53:48;;;;;;;2.17;1.60;;;;;;;17.31;70.36;98666.69;7289244;39;20256;31
2023/08/28 20:59:22;;;;;;;2.00;1.60;;;;;;;17.29;69.99;98664.16;7256839;40;20269;31
2023/08/28 21:04:57;;;;;;;2.30;1.80;;;;;;;17.33;69.77;98664.59;7261828;39;20264;31
2023/08/28 21:10:30;;;;;;;2.30;1.60;;;;;;;17.25;70.19;98646.63;7308301;39;20260;31
2023/08/28 21:16:11;;;;;;;1.90;1.70;;;;;;;17.15;70.26;98648.19;7268142;39;20241;31
2023/08/28 21:21:49;;;;;;;3.20;1.80;;;;;;;17.04;71.31;98638.84;7227870;39;20358;31
2023/08/28 21:27:16;;;;;;;2.75;2.00;;;;;;;17.04;70.55;98650.56;7256038;40;20472;31
2023/08/28 21:32:38;;;;;;;2.75;1.95;;;;;;;17.06;71.07;98664.81;7300392;39;20248;31
2023/08/28 21:43:54;;;;;;;3.37;1.87;;;;;;;17.06;70.66;98674.87;7305856;39;20362;31
2023/08/28 21:49:16;;;;;;;2.70;2.10;;;;;;;17.07;70.33;98674.63;7248141;40;20237;31
2023/08/28 21:54:51;;;;;;;2.50;2.00;;;;;;;16.98;71.66;98665.03;7297970;39;20279;31
2023/08/28 22:00:27;;;;;;;3.68;1.90;;;;;;;16.98;71.27;98675.13;7266896;40;20376;31
2023/08/28 22:06:02;;;;;;;2.16;1.96;;;;;;;16.98;71.06;98659.59;7273646;40;20256;31
2023/08/28 22:11:37;;;;;;;3.20;1.90;;;;;;;16.99;70.96;98644.09;7254495;40;20261;31
2023/08/28 22:16:58;;;;;;;3.20;2.00;;;;;;;17.01;71.03;98642.00;7246519;40;20249;31
2023/08/28 22:22:18;;;;;;;2.13;1.83;;;;;;;16.87;71.44;98622.22;7310650;39;20242;31
2023/08/28 22:27:54;;;;;;;4.30;2.00;;;;;;;16.82;71.54;98616.59;7300462;39;20246;31
2023/08/28 22:33:27;;;;;;;2.50;1.80;;;;;;;16.95;70.44;98597.44;7354801;39;20254;31
2023/08/28 22:38:49;;;;;;;4.25;2.10;;;;;;;16.99;71.24;98593.22;7302307;39;20246;31
2023/08/28 22:44:25;;;;;;;2.85;2.00;;;;;;;16.95;70.30;98593.88;7167168;39;20343;31
2023/08/28 22:49:46;;;;;;;2.55;1.90;;;;;;;16.92;70.41;98592.44;7316113;39;20389;31
2023/08/28 22:55:06;;;;;;;3.47;2.20;;;;;;;16.92;70.15;98587.00;7324436;39;20355;31
2023/08/28 23:00:43;;;;;;;2.20;1.87;;;;;;;16.87;71.26;98595.00;7380135;39;20277;31
2023/08/28 23:06:18;;;;;;;3.47;2.00;;;;;;;16.81;70.67;98587.69;7333451;39;20289;31
2023/08/28 23:16:59;;;;;;;2.10;1.90;;;;;;;16.74;71.63;98581.47;7341810;39;20358;31
2023/08/28 23:22:22;;;;;;;5.10;1.90;;;;;;;16.84;70.27;98595.44;7235759;40;20369;31
2023/08/28 23:27:43;;;;;;;2.60;2.10;;;;;;;16.92;70.55;98599.78;7311374;39;20249;31
2023/08/28 23:33:20;;;;;;;3.30;2.10;;;;;;;16.91;70.70;98595.38;7317560;39;20320;31
2023/08/28 23:43:45;;;;;;;2.63;1.93;;;;;;;16.92;71.41;98606.06;7356810;39;20259;31
2023/08/28 23:49:21;;;;;;;4.37;2.40;;;;;;;16.86;71.84;98597.94;7407439;39;20244;31
2023/08/28 23:54:41;;;;;;;4.00;2.40;;;;;;;16.99;70.67;98604.09;7365473;39;20334;31
